Time;durP1;ratioP1;P1;durP2;ratioP2;P2;SDS_P1;SDS_P2;PMS_P1;PMS_P2;Temp;Humidity;BMP_temperature;BMP_pressure;BME280_temperature;BME280_humidity;BME280_pressure;Samples;Min_cycle;Max_cycle;Signal;HPM_P1;HPM_P2
2021/08/19 00:00:06;;;;;;;12.48;9.18;;;16.90;99.90;;;18.12;97.02;100303.72;6126535;23;20002;-87
2021/08/19 00:02:33;;;;;;;15.70;11.02;;;16.90;99.90;;;18.20;97.45;100306.09;6126128;23;20222;-88
2021/08/19 00:04:59;;;;;;;16.00;11.48;;;16.90;99.90;;;18.14;97.68;100293.59;6151488;23;20044;-86
2021/08/19 00:07:25;;;;;;;18.83;12.85;;;16.90;99.90;;;18.11;98.10;100296.50;6151771;23;20010;-87
2021/08/19 00:09:54;;;;;;;17.23;11.85;;;16.90;99.90;;;18.18;97.92;100299.22;6151156;23;20018;-87
2021/08/19 00:12:21;;;;;;;17.85;13.48;;;16.90;99.90;;;18.16;98.24;100288.34;6127392;23;20037;-86
2021/08/19 00:14:47;;;;;;;17.35;12.85;;;16.90;99.90;;;18.25;97.85;100285.03;6152225;23;20065;-87
2021/08/19 00:17:13;;;;;;;19.50;12.40;;;17.00;99.90;;;18.26;97.59;100287.44;6127469;23;20017;-86
2021/08/19 00:19:39;;;;;;;25.48;14.85;;;17.00;99.90;;;18.21;98.31;100285.06;6127510;23;20010;-87
2021/08/19 00:22:05;;;;;;;19.30;13.82;;;17.00;99.90;;;18.19;98.65;100287.50;6127411;23;20057;-85
2021/08/19 00:24:32;;;;;;;20.00;14.70;;;17.00;99.90;;;18.22;99.04;100300.81;6151702;23;20336;-88
2021/08/19 00:26:58;;;;;;;21.88;14.02;;;17.00;99.90;;;18.30;98.46;100299.50;6151841;23;20444;-86
2021/08/19 00:29:25;;;;;;;22.63;14.90;;;17.10;99.90;;;18.30;98.69;100296.66;6126789;23;20040;-88
2021/08/19 00:31:51;;;;;;;23.88;15.07;;;17.10;99.90;;;18.36;98.50;100282.91;6126872;23;20349;-86
2021/08/19 00:34:18;;;;;;;23.05;16.50;;;17.10;99.90;;;18.40;98.93;100289.31;6127030;23;20010;-84
2021/08/19 00:36:44;;;;;;;27.08;16.52;;;17.10;99.90;;;18.35;99.67;100267.97;6127549;23;20309;-87
2021/08/19 00:39:10;;;;;;;23.25;16.15;;;17.10;99.90;;;18.28;100.00;100279.34;6126716;23;20014;-88
2021/08/19 00:41:37;;;;;;;25.30;17.77;;;17.10;99.90;;;18.24;100.00;100284.22;6127304;23;20523;-87
2021/08/19 00:44:05;;;;;;;25.35;18.75;;;17.00;99.90;;;18.02;100.00;100284.84;6126735;23;20021;-89
2021/08/19 00:46:37;;;;;;;27.10;19.83;;;16.90;99.90;;;18.06;100.00;100283.59;6129069;23;20010;-86
2021/08/19 00:49:11;;;;;;;26.98;19.45;;;16.90;99.90;;;18.01;100.00;100272.75;6151468;23;20038;-87
2021/08/19 00:51:45;;;;;;;29.33;18.85;;;16.80;99.90;;;18.00;100.00;100273.16;6127114;23;20328;-87
2021/08/19 00:54:18;;;;;;;30.05;20.00;;;16.80;99.90;;;17.94;100.00;100272.00;6151288;23;20097;-87
2021/08/19 00:56:44;;;;;;;30.98;20.75;;;16.80;99.90;;;18.00;100.00;100273.97;6126494;23;20006;-87
2021/08/19 00:59:20;;;;;;;32.05;20.63;;;16.70;99.90;;;17.95;100.00;100271.56;6126314;23;20006;-88
2021/08/19 01:01:46;;;;;;;33.08;21.30;;;16.70;99.90;;;17.98;100.00;100281.25;6127886;23;20179;-88
2021/08/19 01:04:12;;;;;;;29.63;20.23;;;16.70;99.90;;;17.98;100.00;100264.31;6126474;23;20149;-90
2021/08/19 01:06:39;;;;;;;32.80;21.67;;;16.70;99.90;;;18.01;100.00;100275.56;6126324;23;20380;-88
2021/08/19 01:09:07;;;;;;;30.27;20.52;;;16.70;99.90;;;17.93;100.00;100279.69;6126416;23;20018;-89
2021/08/19 01:11:39;;;;;;;35.17;22.77;;;16.70;99.90;;;17.86;100.00;100269.22;6125870;23;20014;-89
2021/08/19 01:14:08;;;;;;;29.70;21.98;;;16.70;99.90;;;17.95;100.00;100276.44;6127012;23;20018;-91
2021/08/19 01:16:35;;;;;;;33.88;22.33;;;16.70;99.90;;;17.85;100.00;100278.91;6126722;23;20013;-87
2021/08/19 01:19:01;;;;;;;32.40;21.92;;;16.70;99.90;;;17.95;100.00;100279.28;6126752;23;20033;-88
2021/08/19 01:21:30;;;;;;;37.45;23.70;;;16.70;99.90;;;17.96;100.00;100281.66;6126639;23;20010;-89
2021/08/19 01:23:56;;;;;;;33.30;22.98;;;16.70;99.90;;;17.95;100.00;100282.88;6127082;23;20328;-89
2021/08/19 01:26:23;;;;;;;33.97;22.90;;;16.70;99.90;;;17.92;100.00;100280.88;6128370;23;20020;-89
2021/08/19 01:28:55;;;;;;;40.97;24.65;;;16.60;99.90;;;17.97;100.00;100277.63;6142145;23;20395;-87
2021/08/19 01:31:26;;;;;;;35.60;24.60;;;16.70;99.90;;;17.90;100.00;100281.31;6158865;23;20014;-86
2021/08/19 01:33:53;;;;;;;31.45;23.15;;;16.60;99.90;;;17.86;100.00;100279.72;6150307;23;20010;-90
2021/08/19 01:36:20;;;;;;;35.10;24.52;;;16.60;99.90;;;17.86;100.00;100276.91;6126777;23;20038;-87
2021/08/19 01:38:48;;;;;;;35.53;22.90;;;16.60;99.90;;;17.92;100.00;100282.94;6150783;23;20549;-89
2021/08/19 01:41:14;;;;;;;35.83;24.10;;;16.60;99.90;;;17.89;100.00;100281.72;6125572;23;20089;-89
2021/08/19 01:43:42;;;;;;;32.63;24.05;;;16.70;99.90;;;17.88;100.00;100277.31;6125043;23;20017;-89
2021/08/19 01:46:11;;;;;;;33.25;23.38;;;16.60;99.90;;;17.88;100.00;100277.31;6126260;23;20390;-89
2021/08/19 01:48:49;;;;;;;34.35;24.08;;;16.60;99.90;;;17.81;100.00;100269.69;6124274;23;20010;-88
2021/08/19 01:51:22;;;;;;;39.53;26.45;;;16.50;99.90;;;17.81;100.00;100268.88;6124289;23;20016;-88
2021/08/19 01:53:52;;;;;;;37.55;24.60;;;16.60;99.90;;;17.85;100.00;100269.66;6148797;23;20017;-88
2021/08/19 01:56:23;;;;;;;35.28;25.10;;;16.50;99.90;;;17.80;100.00;100279.38;6124090;23;20010;-89
2021/08/19 01:58:56;;;;;;;37.15;25.15;;;16.50;99.90;;;17.75;100.00;100268.53;6124061;23;20017;-88
2021/08/19 02:01:27;;;;;;;37.53;24.67;;;16.50;99.90;;;17.81;100.00;100274.53;6148913;23;20002;-89
2021/08/19 02:03:55;;;;;;;37.92;28.10;;;16.50;99.90;;;17.76;100.00;100277.78;6149585;23;20013;-89
2021/08/19 02:06:22;;;;;;;37.45;24.88;;;16.50;99.90;;;17.77;100.00;100266.09;6124423;23;20460;-87
2021/08/19 02:08:48;;;;;;;33.63;24.85;;;16.50;99.90;;;17.81;100.00;100271.72;6124369;23;20018;-88
2021/08/19 02:11:15;;;;;;;42.38;27.10;;;16.50;99.90;;;17.73;100.00;100265.31;6123999;23;20097;-90
2021/08/19 02:13:42;;;;;;;35.75;25.67;;;16.50;99.90;;;17.78;100.00;100262.06;6123801;23;20010;-89
2021/08/19 02:16:08;;;;;;;38.30;27.10;;;16.50;99.90;;;17.75;100.00;100262.88;6123991;23;20002;-88
2021/08/19 02:18:34;;;;;;;40.28;27.95;;;16.50;99.90;;;17.80;100.00;100272.91;6148035;23;20318;-88
2021/08/19 02:21:00;;;;;;;34.45;24.75;;;16.50;99.90;;;17.76;100.00;100270.13;6148967;23;20013;-89
2021/08/19 02:23:26;;;;;;;42.72;28.50;;;16.50;99.90;;;17.76;100.00;100269.31;6124315;23;20269;-89
2021/08/19 02:25:52;;;;;;;37.28;25.45;;;16.50;99.90;;;17.82;100.00;100271.28;6149778;23;20006;-88
2021/08/19 02:28:17;;;;;;;41.83;29.10;;;16.50;99.90;;;17.78;100.00;100267.72;6149645;23;20037;-87
2021/08/19 02:30:43;;;;;;;45.17;27.67;;;16.50;99.90;;;17.77;100.00;100259.63;6126867;23;20057;-92
2021/08/19 02:33:09;;;;;;;41.33;27.20;;;16.50;99.90;;;17.77;100.00;100265.28;6125698;23;20002;-88
2021/08/19 02:35:35;;;;;;;42.40;28.15;;;16.50;99.90;;;17.74;100.00;100266.13;6150233;23;20097;-89
2021/08/19 02:38:06;;;;;;;39.58;28.23;;;16.50;99.90;;;17.73;100.00;100267.31;6150505;23;20006;-89
2021/08/19 02:40:36;;;;;;;44.88;28.80;;;16.50;99.90;;;17.62;100.00;100255.31;6126268;23;20010;-89
2021/08/19 02:43:08;;;;;;;37.88;26.80;;;16.50;99.90;;;17.78;100.00;100261.25;6125817;23;20275;-88
2021/08/19 02:45:36;;;;;;;42.20;27.52;;;16.50;99.90;;;17.78;100.00;100262.06;6150255;23;20448;-88
2021/08/19 02:48:03;;;;;;;42.45;28.73;;;16.50;99.90;;;17.80;100.00;100267.28;6125475;23;20014;-90
2021/08/19 02:50:32;;;;;;;38.38;26.75;;;16.50;99.90;;;17.79;100.00;100262.84;6127706;23;20058;-87
2021/08/19 02:52:58;;;;;;;38.95;26.90;;;16.50;99.90;;;17.82;100.00;100268.47;6128431;23;20024;-89
2021/08/19 02:55:26;;;;;;;44.80;28.17;;;16.50;99.90;;;17.74;100.00;100254.81;6152111;23;20010;-90
2021/08/19 02:57:53;;;;;;;40.38;26.55;;;16.50;99.90;;;17.78;100.00;100252.78;6153278;23;20009;-91
2021/08/19 03:00:19;;;;;;;39.30;28.38;;;16.50;99.90;;;17.76;100.00;100253.19;6128382;23;20056;-87
2021/08/19 03:02:45;;;;;;;31.80;24.73;;;16.50;99.90;;;17.74;100.00;100254.81;6150731;23;20010;-88
2021/08/19 03:05:11;;;;;;;41.50;28.05;;;16.50;99.90;;;17.66;100.00;100256.09;6126771;23;20084;-89
2021/08/19 03:07:37;;;;;;;39.65;27.00;;;16.40;99.90;;;17.64;100.00;100245.22;6127304;23;20312;-90
2021/08/19 03:10:07;;;;;;;45.03;28.23;;;16.50;99.90;;;17.60;100.00;100252.91;6127451;23;20167;-88
2021/08/19 03:12:38;;;;;;;37.85;26.05;;;16.40;99.90;;;17.61;100.00;100251.69;6126419;23;20455;-87
2021/08/19 03:15:06;;;;;;;38.58;26.48;;;16.40;99.90;;;17.60;100.00;100244.44;6126998;23;20006;-89
2021/08/19 03:17:33;;;;;;;39.60;26.15;;;16.40;99.90;;;17.63;100.00;100252.06;6127893;23;20022;-87
2021/08/19 03:20:01;;;;;;;35.60;24.13;;;16.40;99.90;;;17.68;100.00;100259.31;6130040;23;20006;-88
2021/08/19 03:22:31;;;;;;;35.38;24.52;;;16.40;99.90;;;17.64;100.00;100250.06;6129972;23;20010;-89
2021/08/19 03:25:00;;;;;;;36.85;25.33;;;16.30;99.90;;;17.60;100.00;100247.25;6129429;23;20010;-89
2021/08/19 03:27:31;;;;;;;34.30;24.48;;;16.30;99.90;;;17.59;100.00;100248.50;6130616;23;20456;-88
2021/08/19 03:29:57;;;;;;;44.20;25.75;;;16.30;99.90;;;17.58;100.00;100246.06;6153657;23;20013;-90
2021/08/19 03:32:23;;;;;;;40.95;25.80;;;16.30;99.90;;;17.59;100.00;100247.69;6129894;23;20034;-89
2021/08/19 03:34:50;;;;;;;36.50;25.38;;;16.40;99.90;;;17.64;100.00;100264.19;6129508;23;20010;-90
2021/08/19 03:37:17;;;;;;;38.50;25.52;;;16.30;99.90;;;17.62;100.00;100249.69;6129832;23;20002;-91
2021/08/19 03:39:42;;;;;;;38.25;25.20;;;16.40;99.90;;;17.62;100.00;100246.84;6162638;23;20081;-90
2021/08/19 03:42:09;;;;;;;37.67;26.17;;;16.30;99.90;;;17.60;100.00;100246.44;6143300;23;20006;-88
2021/08/19 03:44:35;;;;;;;38.72;26.35;;;16.30;99.90;;;17.64;100.00;100250.06;6129428;23;20013;-90
2021/08/19 03:47:01;;;;;;;39.22;24.73;;;16.30;99.90;;;17.68;100.00;100250.84;6128123;23;20009;-87
2021/08/19 03:49:27;;;;;;;35.63;25.35;;;16.40;99.90;;;17.58;100.00;100240.44;6128229;23;20018;-87
2021/08/19 03:51:54;;;;;;;35.38;24.63;;;16.30;99.90;;;17.59;100.00;100250.50;6126860;23;20010;-90
2021/08/19 03:54:21;;;;;;;39.08;25.27;;;16.30;99.90;;;17.55;100.00;100250.53;6127556;23;20014;-89
2021/08/19 03:56:52;;;;;;;40.88;26.70;;;16.30;99.90;;;17.50;100.00;100248.09;6152226;23;20064;-91
2021/08/19 03:59:19;;;;;;;34.53;23.88;;;16.30;99.90;;;17.58;100.00;100260.19;6128127;23;20093;-90
2021/08/19 04:01:48;;;;;;;33.63;23.40;;;16.30;99.90;;;17.46;100.00;100238.88;6126555;23;20060;-90
2021/08/19 04:04:14;;;;;;;29.75;21.30;;;16.30;99.90;;;17.45;100.00;100244.94;6127797;23;20005;-90
2021/08/19 04:06:42;;;;;;;28.52;20.83;;;16.30;99.90;;;17.46;100.00;100249.38;6127666;23;20323;-90
2021/08/19 04:09:08;;;;;;;25.92;19.00;;;16.30;99.90;;;17.49;100.00;100252.16;6126626;23;20448;-88
2021/08/19 04:11:37;;;;;;;28.73;19.30;;;16.20;99.90;;;17.48;100.00;100255.38;6150530;23;20009;-88
2021/08/19 04:14:03;;;;;;;30.63;20.48;;;16.20;99.90;;;17.50;100.00;100259.41;6127810;23;20468;-85
2021/08/19 04:16:31;;;;;;;29.98;20.23;;;16.30;99.90;;;17.43;100.00;100255.84;6127643;23;20006;-91
2021/08/19 04:18:59;;;;;;;26.02;19.42;;;16.20;99.90;;;17.42;100.00;100251.41;6129745;23;20462;-91
2021/08/19 04:21:25;;;;;;;23.42;17.25;;;16.20;99.90;;;17.44;100.00;100252.59;6128211;23;20029;-90
2021/08/19 04:23:52;;;;;;;26.50;17.70;;;16.20;99.90;;;17.40;100.00;100246.97;6128540;23;20010;-89
2021/08/19 04:26:18;;;;;;;27.90;18.70;;;16.20;99.90;;;17.37;100.00;100252.63;6154230;23;20021;-89
2021/08/19 04:28:45;;;;;;;23.75;16.85;;;16.20;99.90;;;17.40;100.00;100246.97;6127531;23;20013;-87
2021/08/19 04:31:13;;;;;;;23.27;17.75;;;16.20;99.90;;;17.34;100.00;100242.97;6135364;23;20021;-86
2021/08/19 04:33:39;;;;;;;27.60;17.52;;;16.10;99.90;;;17.32;100.00;100245.41;6146180;23;20014;-86
2021/08/19 04:36:06;;;;;;;21.00;15.15;;;16.10;99.90;;;17.26;100.00;100247.06;6147337;23;20017;-87
2021/08/19 04:38:34;;;;;;;21.45;14.30;;;16.10;99.90;;;17.33;100.00;100247.03;6125160;23;19998;-84
2021/08/19 04:41:03;;;;;;;20.77;14.25;;;16.10;99.90;;;17.27;100.00;100236.59;6143537;23;20025;-87
2021/08/19 04:43:30;;;;;;;18.42;12.30;;;16.10;99.90;;;17.28;100.00;100247.47;6151733;23;20013;-85
2021/08/19 04:46:31;;;;;;;21.17;13.20;;;16.10;99.90;;;17.29;100.00;100251.91;6147598;23;20024;-89
2021/08/19 04:48:59;;;;;;;18.17;12.50;;;16.10;99.90;;;17.30;100.00;100247.06;6153606;23;20006;-89
2021/08/19 04:51:26;;;;;;;20.42;13.93;;;16.00;99.90;;;17.34;100.00;100259.91;6127893;23;20006;-90
2021/08/19 04:53:51;;;;;;;22.73;15.40;;;16.00;99.90;;;17.30;100.00;100252.69;6128828;23;20441;-87
2021/08/19 04:56:18;;;;;;;25.73;15.88;;;16.10;99.90;;;17.29;100.00;100256.72;6131125;23;20017;-88
2021/08/19 04:59:23;;;;;;;29.48;15.65;;;16.10;99.90;;;17.26;100.00;100247.06;6136929;23;20006;-90
2021/08/19 05:01:49;;;;;;;25.75;15.73;;;16.10;99.90;;;17.33;100.00;100244.22;6132212;23;20432;-91
2021/08/19 05:04:16;;;;;;;21.67;15.30;;;16.10;99.90;;;17.32;100.00;100248.25;6127305;23;20060;-90
2021/08/19 05:06:42;;;;;;;24.35;15.60;;;16.10;99.90;;;17.35;100.00;100241.78;6151539;23;20010;-89
2021/08/19 05:09:08;;;;;;;24.77;18.00;;;16.10;99.90;;;17.37;100.00;100253.44;6140740;23;20024;-90
2021/08/19 05:11:35;;;;;;;27.70;17.92;;;16.10;99.90;;;17.37;100.00;100246.97;6133459;23;20104;-88
2021/08/19 05:14:04;;;;;;;32.45;21.35;;;16.20;99.90;;;17.40;100.00;100249.78;6132320;23;20048;-89
2021/08/19 05:16:32;;;;;;;26.58;19.65;;;16.10;99.90;;;17.44;100.00;100248.97;6133232;23;20010;-88
2021/08/19 05:18:59;;;;;;;29.75;20.13;;;16.20;99.90;;;17.43;100.00;100253.03;6130520;23;20037;-89
2021/08/19 05:21:34;;;;;;;29.20;21.70;;;16.10;99.90;;;17.37;100.00;100244.97;6130542;23;20030;-89
2021/08/19 05:24:06;;;;;;;30.35;21.48;;;16.10;99.90;;;17.39;100.00;100256.66;6131236;23;20013;-89
2021/08/19 05:26:33;;;;;;;32.47;23.40;;;16.10;99.90;;;17.46;100.00;100255.81;6130916;23;20303;-90
2021/08/19 05:28:59;;;;;;;35.50;22.85;;;16.10;99.90;;;17.56;100.00;100266.28;6155522;23;20021;-89
2021/08/19 05:31:24;;;;;;;37.53;24.80;;;16.20;99.90;;;17.55;100.00;100256.19;6130922;23;20005;-88
2021/08/19 05:33:50;;;;;;;35.83;23.13;;;16.20;99.90;;;17.55;100.00;100255.34;6130819;23;20113;-90
2021/08/19 05:36:16;;;;;;;41.30;26.73;;;16.20;99.90;;;17.58;100.00;100268.66;6131030;23;20467;-89
2021/08/19 05:38:44;;;;;;;45.65;27.65;;;16.30;99.90;;;17.48;100.00;100269.50;6132758;23;20336;-91
2021/08/19 05:41:10;;;;;;;42.22;24.90;;;16.20;99.90;;;17.54;100.00;100265.03;6131414;23;20005;-89
2021/08/19 05:43:36;;;;;;;45.08;27.83;;;16.20;99.90;;;17.48;100.00;100269.50;6133210;23;20440;-87
2021/08/19 05:46:02;;;;;;;48.50;29.33;;;16.30;99.90;;;17.50;100.00;100270.69;6135111;23;20006;-90
2021/08/19 05:48:28;;;;;;;43.85;28.02;;;16.20;99.90;;;17.47;100.00;100267.88;6135134;23;20048;-87
2021/08/19 05:50:56;;;;;;;45.83;27.42;;;16.30;99.90;;;17.52;100.00;100267.47;6135882;23;20001;-90
2021/08/19 05:53:21;;;;;;;47.53;26.48;;;16.20;99.90;;;17.56;100.00;100273.94;6158065;23;20033;-88
2021/08/19 05:55:47;;;;;;;48.90;27.35;;;16.20;99.90;;;17.52;100.00;100264.66;6143050;23;20021;-94
2021/08/19 05:58:14;;;;;;;46.58;27.13;;;16.30;99.90;;;17.53;100.00;100277.56;6150339;23;19997;-91
2021/08/19 06:00:49;;;;;;;47.00;27.70;;;16.30;99.90;;;17.47;100.00;100271.53;6136038;23;20008;-89
2021/08/19 06:03:20;;;;;;;39.33;25.67;;;16.30;99.90;;;17.50;100.00;100281.97;6136685;23;20016;-88
2021/08/19 06:05:48;;;;;;;43.63;25.85;;;16.30;99.90;;;17.53;100.00;100281.16;6144061;23;20083;-89
2021/08/19 06:08:15;;;;;;;42.78;24.58;;;16.30;99.90;;;17.43;100.00;100289.72;6144326;23;20016;-87
2021/08/19 06:10:42;;;;;;;41.85;23.58;;;16.20;99.90;;;17.43;100.00;100290.53;6141852;23;20013;-90
2021/08/19 06:13:08;;;;;;;40.97;22.95;;;16.20;99.90;;;17.50;100.00;100289.69;6166909;23;20032;-88
2021/08/19 06:15:34;;;;;;;42.70;23.52;;;16.30;99.90;;;17.30;100.00;100287.38;6133019;23;20013;-86
2021/08/19 06:36:24;;;;;;;41.53;24.95;;;16.30;99.90;;;17.73;100.00;100298.41;6134717;23;20391;-90
2021/08/19 06:38:57;;;;;;;52.47;27.98;;;16.40;99.90;;;17.72;100.00;100286.28;6103213;23;20105;-89
2021/08/19 06:41:27;;;;;;;45.65;27.30;;;16.30;99.90;;;17.67;100.00;100283.91;6104321;23;20006;-88
2021/08/19 06:43:53;;;;;;;41.97;26.02;;;16.40;99.90;;;17.75;100.00;100296.78;6078450;23;20057;-88
2021/08/19 06:46:27;;;;;;;41.35;26.90;;;16.40;99.90;;;17.78;100.00;100304.44;6100299;23;20007;-89
2021/08/19 06:48:54;;;;;;;40.55;26.23;;;16.50;99.90;;;17.84;100.00;100299.13;6107487;23;20049;-87
2021/08/19 06:51:22;;;;;;;47.08;28.60;;;16.50;99.90;;;17.83;100.00;100292.66;6108597;23;20013;-89
2021/08/19 06:53:49;;;;;;;39.95;26.40;;;16.50;99.90;;;17.75;100.00;100302.44;6105254;23;20049;-87
2021/08/19 06:56:23;;;;;;;36.88;25.67;;;16.50;99.90;;;17.84;100.00;100297.09;6099561;23;20045;-88
2021/08/19 06:58:50;;;;;;;46.20;27.85;;;16.60;99.90;;;17.74;100.00;100300.00;6098712;23;20385;-89
2021/08/19 07:01:18;;;;;;;41.83;24.45;;;16.50;99.90;;;17.72;100.00;100299.63;6099731;23;20377;-88
2021/08/19 07:03:52;;;;;;;42.15;25.17;;;16.60;99.90;;;17.87;100.00;100298.28;6096596;23;20013;-87
2021/08/19 07:06:26;;;;;;;39.65;24.98;;;16.60;99.90;;;17.80;100.00;100304.81;6072862;23;20039;-88
2021/08/19 07:08:52;;;;;;;36.08;23.88;;;16.50;99.90;;;17.70;100.00;100302.84;6096108;23;20018;-88
2021/08/19 07:11:21;;;;;;;33.22;23.67;;;16.50;99.90;;;17.77;100.00;100294.34;6075334;23;20009;-88
2021/08/19 07:13:49;;;;;;;34.97;24.42;;;16.50;99.90;;;17.81;100.00;100303.59;6073278;23;20097;-88
2021/08/19 07:16:21;;;;;;;37.30;23.05;;;16.50;99.90;;;17.98;100.00;100310.28;6072398;23;20062;-88
2021/08/19 07:18:49;;;;;;;36.35;23.13;;;16.60;99.90;;;17.94;100.00;100308.72;6096748;23;20018;-90
2021/08/19 07:21:20;;;;;;;33.70;22.90;;;16.60;99.90;;;17.93;100.00;100296.63;6072713;23;20002;-88
2021/08/19 07:23:46;;;;;;;30.95;21.35;;;16.60;99.90;;;17.99;100.00;100302.63;6072666;23;20121;-87
2021/08/19 07:26:24;;;;;;;33.55;23.17;;;16.70;99.90;;;18.03;100.00;100314.72;6096128;23;20010;-89
2021/08/19 07:28:57;;;;;;;33.38;22.90;;;16.70;99.90;;;17.98;100.00;100298.22;6096309;23;20376;-87
2021/08/19 07:31:39;;;;;;;35.38;21.25;;;16.70;99.90;;;17.99;100.00;100303.44;6098026;23;20009;-88
2021/08/19 07:34:22;;;;;;;;;;;;;;;;;;;;;
2021/08/19 07:36:51;;;;;;;33.85;21.95;;;16.60;99.90;;;17.86;100.00;100308.78;6096723;23;20085;-88
2021/08/19 07:39:19;;;;;;;37.40;22.50;;;16.60;99.90;;;17.83;100.00;100306.78;6095991;23;20010;-87
2021/08/19 07:41:46;;;;;;;35.67;22.55;;;16.60;99.90;;;17.87;100.00;100318.88;6076039;23;20286;-88
2021/08/19 07:44:19;;;;;;;38.20;23.75;;;16.60;99.90;;;17.89;100.00;100326.91;6100623;23;20010;-88
2021/08/19 07:46:47;;;;;;;32.25;22.27;;;16.60;99.90;;;17.92;100.00;100321.25;6097997;23;20444;-85
2021/08/19 07:49:25;;;;;;;;;;;;;;;;;;;;;
2021/08/19 07:51:54;;;;;;;35.35;21.98;;;16.60;99.90;;;17.95;100.00;100330.13;6102767;23;20033;-88
2021/08/19 07:54:23;;;;;;;32.72;22.23;;;16.60;99.90;;;17.90;100.00;100332.16;6095659;23;20085;-88
2021/08/19 07:56:52;;;;;;;27.92;19.98;;;16.60;99.90;;;17.90;100.00;100320.06;6074361;23;20186;-87
2021/08/19 07:59:19;;;;;;;30.13;21.38;;;16.60;99.90;;;17.85;100.00;100345.94;6078718;23;20013;-87
2021/08/19 08:01:47;;;;;;;30.50;21.58;;;16.60;99.90;;;17.90;100.00;100331.38;6079248;23;20002;-86
2021/08/19 08:04:13;;;;;;;29.15;20.27;;;16.60;99.90;;;17.92;100.00;100340.22;6101080;23;20026;-88
2021/08/19 08:06:41;;;;;;;32.83;21.00;;;16.60;99.90;;;17.92;100.00;100326.91;6102050;23;20018;-85
2021/08/19 08:09:08;;;;;;;29.98;22.27;;;16.70;99.90;;;17.92;100.00;100332.53;6102255;23;20014;-85
2021/08/19 08:11:36;;;;;;;38.35;21.98;;;16.60;99.90;;;17.92;100.00;100334.56;6101772;23;20010;-86
2021/08/19 08:14:09;;;;;;;28.33;19.00;;;16.70;99.90;;;18.07;100.00;100338.91;6077689;23;20449;-86
2021/08/19 08:16:38;;;;;;;29.27;20.40;;;16.80;99.90;;;18.12;100.00;100343.28;6100259;23;20490;-87
2021/08/19 08:19:03;;;;;;;28.52;20.80;;;16.80;99.90;;;18.08;100.00;100345.34;6075668;23;20010;-86
2021/08/19 08:21:40;;;;;;;;;;;;;;;;;;;;;
2021/08/19 08:24:08;;;;;;;33.80;21.48;;;16.70;99.90;;;18.05;100.00;100346.97;6104235;23;20040;-88
2021/08/19 08:26:35;;;;;;;31.48;21.33;;;16.70;99.90;;;18.04;100.00;100345.38;6103261;23;20006;-90
2021/08/19 08:29:02;;;;;;;26.60;20.58;;;16.70;99.90;;;18.12;100.00;100351.78;6078243;23;20021;-87
2021/08/19 08:31:29;;;;;;;30.55;20.48;;;16.70;99.90;;;18.18;100.00;100350.91;6111630;23;20018;-90
2021/08/19 08:34:06;;;;;;;28.73;19.85;;;16.90;99.90;;;18.21;100.00;100354.91;6114277;23;20018;-86
2021/08/19 08:36:32;;;;;;;30.13;19.88;;;16.90;99.90;;;18.31;100.00;100352.00;6095858;23;20011;-87
2021/08/19 08:38:58;;;;;;;31.08;19.75;;;16.90;99.90;;;18.27;100.00;100348.41;6071259;23;20053;-84
2021/08/19 08:41:25;;;;;;;29.20;19.35;;;16.90;99.90;;;18.30;100.00;100352.44;6072249;23;20007;-88
2021/08/19 08:43:56;;;;;;;27.30;19.15;;;16.90;99.90;;;18.27;100.00;100351.22;6097886;23;20022;-87
2021/08/19 08:47:20;;;;;;;25.05;18.10;;;16.90;99.90;;;18.27;100.00;100356.88;6103214;23;20002;-85
2021/08/19 08:49:47;;;;;;;26.60;18.52;;;16.90;99.90;;;18.36;100.00;100362.88;6081129;23;20066;-88
2021/08/19 08:52:13;;;;;;;30.48;18.15;;;17.00;99.90;;;18.30;100.00;100352.44;6093721;23;20460;-86
2021/08/19 08:54:39;;;;;;;25.50;17.63;;;17.00;99.90;;;18.46;100.00;100357.53;6093667;23;20017;-88
2021/08/19 08:57:06;;;;;;;26.45;18.67;;;17.10;99.90;;;18.43;100.00;100362.78;6092705;23;20018;-88
2021/08/19 08:59:32;;;;;;;24.63;18.52;;;17.10;99.90;;;18.48;100.00;100355.09;6068163;23;20007;-85
2021/08/19 09:02:01;;;;;;;24.02;16.05;;;17.10;99.90;;;18.49;100.00;100360.34;6069536;23;20022;-88
2021/08/19 09:04:28;;;;;;;23.63;17.38;;;17.10;99.90;;;18.38;100.00;100368.09;6092876;23;20010;-88
2021/08/19 09:07:05;;;;;;;23.58;16.60;;;17.10;99.90;;;18.46;100.00;100371.69;6091386;23;20011;-88
2021/08/19 09:09:32;;;;;;;23.80;17.02;;;17.10;99.90;;;18.46;100.00;100372.50;6092647;23;20426;-86
2021/08/19 09:12:07;;;;;;;26.63;18.70;;;17.10;99.90;;;18.45;100.00;100376.53;6093258;23;20162;-88
2021/08/19 09:14:40;;;;;;;27.73;17.38;;;17.10;99.90;;;18.31;100.00;100385.94;6092774;23;20397;-85
2021/08/19 09:17:10;;;;;;;27.00;17.58;;;17.00;99.90;;;18.39;100.00;100378.19;6093335;23;20018;-89
2021/08/19 09:19:36;;;;;;;26.63;17.40;;;17.10;99.90;;;18.27;100.00;100376.66;6075195;23;20334;-90
2021/08/19 09:22:07;;;;;;;23.63;16.48;;;16.90;99.90;;;18.29;100.00;100376.25;6068066;23;20433;-88
2021/08/19 09:24:35;;;;;;;23.50;16.88;;;16.90;99.90;;;18.29;100.00;100379.09;6091410;23;20015;-89
2021/08/19 09:27:18;;;;;;;20.60;15.68;;;16.90;99.90;;;18.20;100.00;100387.25;6068138;23;20010;-91
2021/08/19 09:29:46;;;;;;;20.42;16.10;;;16.80;99.90;;;18.18;100.00;100369.88;6090929;23;20070;-90
2021/08/19 09:32:19;;;;;;;26.48;18.00;;;16.80;99.90;;;18.13;100.00;100373.97;6067413;23;20021;-90
2021/08/19 09:34:50;;;;;;;27.00;17.02;;;16.80;99.90;;;18.30;100.00;100386.38;6091646;23;20011;-89
2021/08/19 09:37:20;;;;;;;29.92;19.45;;;16.80;99.90;;;18.36;100.00;100376.22;6067127;23;20021;-86
2021/08/19 09:39:59;;;;;;;25.67;19.30;;;16.90;99.90;;;18.24;100.00;100383.16;6091960;23;20026;-88
2021/08/19 09:42:45;;;;;;;30.30;20.75;;;16.90;99.90;;;18.31;100.00;100385.13;6069422;23;20078;-89
2021/08/19 09:45:25;;;;;;;30.48;19.75;;;17.00;99.90;;;18.30;100.00;100394.84;6093336;23;20010;-86
2021/08/19 09:48:04;;;;;;;26.42;19.40;;;17.00;99.90;;;18.44;100.00;100395.50;6068163;23;20473;-90
2021/08/19 09:50:30;;;;;;;26.42;17.67;;;17.00;99.90;;;18.50;100.00;100389.41;6069074;23;20011;-88
2021/08/19 09:53:30;;;;;;;;;;;;;;;;;;;;;
2021/08/19 09:55:57;;;;;;;29.38;19.23;;;17.10;99.90;;;18.47;100.00;100391.03;6071418;23;20081;-86
2021/08/19 09:58:33;;;;;;;27.17;18.30;;;17.10;99.90;;;18.58;100.00;100388.97;6069455;23;20017;-92
2021/08/19 10:00:59;;;;;;;27.52;18.17;;;17.10;99.90;;;18.55;100.00;100383.34;6070655;23;20117;-89
2021/08/19 10:03:29;;;;;;;29.50;20.48;;;17.10;99.90;;;18.62;100.00;100380.44;6072268;23;20077;-87
2021/08/19 10:05:57;;;;;;;28.75;17.85;;;17.10;99.90;;;18.76;100.00;100395.22;6094323;23;20017;-90
2021/08/19 10:08:28;;;;;;;28.83;18.63;;;17.30;99.90;;;18.76;100.00;100388.75;6069458;23;20011;-86
2021/08/19 10:11:02;;;;;;;29.50;18.10;;;17.30;99.90;;;18.90;100.00;100372.44;6101069;23;20007;-90
2021/08/19 10:13:31;;;;;;;26.90;18.40;;;17.50;99.90;;;18.92;100.00;100374.84;6093614;23;20003;-92
2021/08/19 10:16:00;;;;;;;31.27;19.25;;;17.50;99.90;;;18.94;100.00;100376.03;6071464;23;20014;-90
2021/08/19 10:18:35;;;;;;;30.05;19.23;;;17.50;99.90;;;18.96;100.00;100369.97;6093646;23;20097;-88
2021/08/19 10:21:15;;;;;;;25.73;17.85;;;17.50;99.90;;;18.86;100.00;100370.88;6070492;23;20062;-88
2021/08/19 10:23:47;;;;;;;27.55;17.40;;;17.50;99.90;;;18.99;100.00;100368.31;6094352;23;20007;-88
2021/08/19 10:26:24;;;;;;;24.55;16.50;;;17.50;99.90;;;19.18;100.00;100379.81;6070228;23;20033;-90